Time;durP1;ratioP1;P1;durP2;ratioP2;P2;SDS_P1;SDS_P2;PMS_P1;PMS_P2;Temp;Humidity;BMP_temperature;BMP_pressure;BME280_temperature;BME280_humidity;BME280_pressure;Samples;Min_cycle;Max_cycle;Signal;HPM_P1;HPM_P2
2022/09/29 00:01:16;;;;;;;22.23;11.02;;;7.40;99.90;;;6.07;100.00;99464.88;4978674;28;20043;-80
2022/09/29 00:03:42;;;;;;;28.35;11.73;;;7.40;99.90;;;6.07;100.00;99458.78;4977740;28;20046;-80
2022/09/29 00:06:18;;;;;;;24.52;11.27;;;7.40;99.90;;;6.07;100.00;99448.31;4977430;28;20516;-80
2022/09/29 00:08:45;;;;;;;21.38;9.48;;;7.40;99.90;;;6.03;100.00;99465.94;4977226;28;20108;-80
2022/09/29 00:11:16;;;;;;;18.55;9.32;;;7.40;99.90;;;6.00;100.00;99455.59;4971660;28;20568;-79
2022/09/29 00:13:46;;;;;;;20.27;10.57;;;7.40;99.90;;;5.95;100.00;99455.00;4958633;28;20169;-80
2022/09/29 00:16:12;;;;;;;19.50;10.38;;;7.30;99.90;;;5.92;100.00;99465.56;4966093;28;20036;-80
2022/09/29 00:18:39;;;;;;;14.07;7.78;;;7.30;99.90;;;5.86;100.00;99466.69;4978795;28;20174;-80
2022/09/29 00:21:14;;;;;;;23.38;11.43;;;7.20;99.90;;;5.81;100.00;99459.97;4959228;28;20531;-80
2022/09/29 00:23:40;;;;;;;17.52;9.68;;;7.20;99.90;;;5.74;100.00;99459.44;4980626;28;20035;-80
2022/09/29 00:26:22;;;;;;;23.38;12.05;;;7.10;99.90;;;5.71;100.00;99459.59;4958928;28;20095;-80
2022/09/29 00:28:59;;;;;;;28.85;13.25;;;7.10;99.90;;;5.70;100.00;99450.03;4960242;28;20031;-80
2022/09/29 00:31:30;;;;;;;29.33;14.50;;;7.10;99.90;;;5.69;100.00;99464.03;4959404;29;20036;-80
2022/09/29 00:34:02;;;;;;;35.05;14.93;;;7.10;99.90;;;5.71;100.00;99459.59;4962536;28;20034;-80
2022/09/29 00:36:30;;;;;;;43.72;15.45;;;7.10;99.90;;;5.73;100.00;99469.03;4971518;28;20023;-79
2022/09/29 00:38:58;;;;;;;34.55;14.90;;;7.10;99.90;;;5.74;100.00;99464.66;4977144;28;20038;-80
2022/09/29 00:41:30;;;;;;;33.78;15.13;;;7.20;99.90;;;5.76;100.00;99460.22;4975171;28;20491;-80
2022/09/29 00:44:25;;;;;;;33.92;15.32;;;7.20;99.90;;;5.76;100.00;99468.88;4977509;28;20046;-80
2022/09/29 00:46:57;;;;;;;33.33;15.10;;;7.20;99.90;;;5.75;100.00;99466.38;4950906;28;20035;-80
2022/09/29 00:49:32;;;;;;;39.38;14.65;;;7.10;99.90;;;5.73;100.00;99461.19;4976647;28;20074;-80
2022/09/29 00:52:03;;;;;;;25.00;12.60;;;7.10;99.90;;;5.71;100.00;99470.03;4976038;28;20140;-79
2022/09/29 00:54:37;;;;;;;17.73;9.70;;;7.10;99.90;;;5.66;100.00;99469.38;4976859;28;20028;-80
2022/09/29 00:57:07;;;;;;;32.35;15.02;;;7.00;99.90;;;5.61;100.00;99466.16;4962527;28;20472;-80
2022/09/29 01:00:01;;;;;;;20.40;10.00;;;7.00;99.90;;;5.57;100.00;99468.03;4960113;28;20047;-79
2022/09/29 01:02:29;;;;;;;34.92;16.08;;;6.90;99.90;;;5.54;100.00;99462.97;4957409;28;20046;-80
2022/09/29 01:04:57;;;;;;;39.47;16.45;;;6.90;99.90;;;5.51;100.00;99466.56;4972313;28;20032;-80
2022/09/29 01:07:26;;;;;;;40.28;17.63;;;6.90;99.90;;;5.51;100.00;99466.56;4961022;28;20043;-80
2022/09/29 01:09:55;;;;;;;49.78;18.17;;;6.90;99.90;;;5.54;100.00;99474.25;4979516;28;21128;-80
2022/09/29 01:12:24;;;;;;;45.65;19.00;;;7.00;99.90;;;5.55;100.00;99467.28;4975504;28;20031;-80
2022/09/29 01:14:53;;;;;;;49.72;18.85;;;7.00;99.90;;;5.59;100.00;99473.19;4961460;28;20034;-80
2022/09/29 01:17:19;;;;;;;48.03;19.40;;;7.00;99.90;;;5.60;100.00;99477.53;4960465;29;20456;-80
2022/09/29 01:20:21;;;;;;;50.42;18.58;;;7.00;99.90;;;5.62;100.00;99478.31;4976282;28;20054;-80
2022/09/29 01:23:43;;;;;;;53.05;20.20;;;7.00;99.90;;;5.61;100.00;99487.03;4959712;29;20038;-80
2022/09/29 01:26:33;;;;;;;55.83;19.08;;;7.00;99.90;;;5.59;100.00;99486.25;4973796;28;20563;-80
2022/09/29 01:29:35;;;;;;;51.33;19.08;;;7.00;99.90;;;5.57;100.00;99481.09;4967950;28;20031;-80
2022/09/29 01:32:17;;;;;;;54.47;20.27;;;7.00;99.90;;;5.54;100.00;99484.69;4967945;28;20035;-80
2022/09/29 01:35:18;;;;;;;55.60;19.88;;;7.00;99.90;;;5.54;100.00;99491.69;4975333;28;20023;-80
2022/09/29 01:38:17;;;;;;;48.65;19.27;;;6.90;99.90;;;5.52;100.00;99477.84;4966278;28;20043;-80
2022/09/29 01:41:16;;;;;;;54.10;20.25;;;6.90;99.90;;;5.50;100.00;99480.53;4958413;28;20047;-80
2022/09/29 01:44:00;;;;;;;53.08;20.02;;;6.90;99.90;;;5.50;100.00;99485.75;4961457;28;20037;-80
2022/09/29 01:47:04;;;;;;;61.50;21.50;;;6.90;99.90;;;5.51;100.00;99487.47;4958960;28;20031;-79
2022/09/29 01:49:35;;;;;;;55.67;21.90;;;6.90;99.90;;;5.52;100.00;99491.75;4958835;28;20019;-81
2022/09/29 01:52:09;;;;;;;57.67;21.98;;;6.90;99.90;;;5.56;100.00;99492.47;4955639;29;20039;-79
2022/09/29 01:54:59;;;;;;;61.90;24.00;;;7.00;99.90;;;5.60;100.00;99490.56;4973668;28;20118;-80
2022/09/29 01:57:41;;;;;;;55.15;21.65;;;7.00;99.90;;;5.63;100.00;99493.03;4974735;28;20049;-80
2022/09/29 02:00:14;;;;;;;61.97;22.52;;;7.00;99.90;;;5.64;100.00;99490.38;4960059;28;20034;-80
2022/09/29 02:02:49;;;;;;;67.47;23.77;;;7.00;99.90;;;5.63;100.00;99491.25;4963220;28;20083;-80
2022/09/29 02:05:24;;;;;;;56.28;22.60;;;7.00;99.90;;;5.63;100.00;99498.25;4966478;28;20039;-80
2022/09/29 02:07:53;;;;;;;63.03;22.42;;;7.00;99.90;;;5.60;100.00;99491.41;4975637;28;21145;-80
2022/09/29 02:10:29;;;;;;;61.25;23.35;;;7.00;99.90;;;5.61;100.00;99497.47;4975094;28;20035;-80
2022/09/29 02:12:59;;;;;;;60.78;23.30;;;7.00;99.90;;;5.57;100.00;99495.94;4972158;28;20064;-80
2022/09/29 02:15:36;;;;;;;62.78;22.17;;;7.00;99.90;;;5.55;100.00;99499.47;4974096;28;20030;-80
2022/09/29 02:18:12;;;;;;;54.10;22.17;;;7.00;99.90;;;5.55;100.00;99494.25;4973891;28;20031;-80
2022/09/29 02:20:41;;;;;;;59.30;23.07;;;6.90;99.90;;;5.54;100.00;99496.91;4970916;28;20031;-80
2022/09/29 02:23:07;;;;;;;60.42;23.85;;;6.90;99.90;;;5.54;100.00;99502.13;4972069;28;20047;-80
2022/09/29 02:25:37;;;;;;;57.10;22.73;;;6.90;99.90;;;5.52;100.00;99493.53;4957490;28;20038;-80
2022/09/29 02:28:04;;;;;;;57.38;23.08;;;6.90;99.90;;;5.53;100.00;99503.06;4969800;28;20035;-79
2022/09/29 02:30:36;;;;;;;66.80;23.35;;;6.90;99.90;;;5.50;100.00;99493.59;4957714;28;20031;-80
2022/09/29 02:33:02;;;;;;;64.63;24.38;;;6.90;99.90;;;5.50;100.00;99496.19;4959346;28;20500;-79
2022/09/29 02:36:09;;;;;;;61.83;22.80;;;6.90;99.90;;;5.49;100.00;99496.28;4973652;28;20038;-80
2022/09/29 02:39:03;;;;;;;66.10;23.25;;;6.80;99.90;;;5.45;100.00;99506.00;4959329;28;20031;-80
2022/09/29 02:42:06;;;;;;;60.78;22.73;;;6.80;99.90;;;5.42;100.00;99518.34;4971372;28;20047;-80
2022/09/29 02:44:44;;;;;;;63.05;23.33;;;6.80;99.90;;;5.36;100.00;99503.81;4978376;28;20090;-80
2022/09/29 02:47:54;;;;;;;70.38;24.42;;;6.80;99.90;;;5.31;100.00;99506.66;4981303;28;20035;-80
2022/09/29 02:50:35;;;;;;;68.68;24.15;;;6.70;99.90;;;5.27;100.00;99509.44;4976939;28;20036;-80
2022/09/29 02:53:16;;;;;;;66.15;23.42;;;6.70;99.90;;;5.25;100.00;99508.69;4964997;28;20110;-80
2022/09/29 02:56:04;;;;;;;69.88;23.25;;;6.60;99.90;;;5.21;100.00;99505.34;4966035;28;20039;-80
2022/09/29 02:58:45;;;;;;;65.78;24.42;;;6.60;99.90;;;5.19;100.00;99509.78;4961265;28;20156;-80
2022/09/29 03:01:14;;;;;;;74.13;25.77;;;6.60;99.90;;;5.19;100.00;99508.94;4977551;28;20031;-80
2022/09/29 03:03:39;;;;;;;74.07;24.40;;;6.60;99.90;;;5.16;100.00;99511.66;4959812;29;20031;-81
2022/09/29 03:06:05;;;;;;;57.33;21.98;;;6.60;99.90;;;5.12;100.00;99503.16;4975939;28;20042;-80
2022/09/29 03:08:32;;;;;;;52.80;21.95;;;6.60;99.90;;;5.12;100.00;99506.59;4962216;28;20035;-79
2022/09/29 03:10:58;;;;;;;54.78;23.25;;;6.50;99.90;;;5.10;100.00;99507.59;4975858;28;20044;-80
2022/09/29 03:13:24;;;;;;;55.15;22.52;;;6.50;99.90;;;5.07;100.00;99510.31;4975388;28;20067;-80
2022/09/29 03:15:59;;;;;;;53.80;23.08;;;6.50;99.90;;;5.04;100.00;99506.06;4974939;28;20020;-80
2022/09/29 03:18:24;;;;;;;59.85;22.83;;;6.50;99.90;;;5.01;100.00;99516.66;4958061;28;20031;-80
2022/09/29 03:20:54;;;;;;;69.43;24.92;;;6.50;99.90;;;5.00;100.00;99516.72;4961546;28;20510;-81
2022/09/29 03:23:22;;;;;;;66.60;24.63;;;6.40;99.90;;;5.00;100.00;99507.13;4973069;28;20051;-80
2022/09/29 03:25:51;;;;;;;83.60;27.67;;;6.40;99.90;;;4.98;100.00;99516.78;4969893;28;20027;-79
2022/09/29 03:28:17;;;;;;;69.70;26.48;;;6.40;99.90;;;4.98;100.00;99508.09;4959367;28;20057;-79
2022/09/29 03:30:44;;;;;;;54.67;23.88;;;6.40;99.90;;;4.99;100.00;99515.00;4962795;28;20411;-80
2022/09/29 03:33:18;;;;;;;73.20;24.85;;;6.40;99.90;;;4.96;100.00;99516.00;4959072;28;20027;-79
2022/09/29 03:35:44;;;;;;;55.33;22.50;;;6.40;99.90;;;4.94;100.00;99525.63;4973955;28;20031;-80
2022/09/29 03:38:09;;;;;;;46.72;21.30;;;6.30;99.90;;;4.90;100.00;99521.47;4973506;28;20066;-80
2022/09/29 03:40:35;;;;;;;64.93;25.65;;;6.30;99.90;;;4.86;100.00;99519.91;4955236;29;20123;-80
2022/09/29 03:43:10;;;;;;;59.17;24.60;;;6.30;99.90;;;4.82;100.00;99529.63;4960586;28;20504;-80
2022/09/29 03:45:35;;;;;;;52.03;22.60;;;6.20;99.90;;;4.78;100.00;99522.00;4970034;28;20049;-80
2022/09/29 03:48:03;;;;;;;47.58;21.42;;;6.20;99.90;;;4.77;100.00;99525.50;4957781;28;20138;-80
2022/09/29 03:50:29;;;;;;;112.28;27.38;;;6.20;99.90;;;4.66;100.00;99520.72;4972945;28;20476;-80
2022/09/29 03:52:57;;;;;;;112.53;28.02;;;6.10;99.90;;;4.61;100.00;99530.53;4971327;28;20127;-79
2022/09/29 03:55:23;;;;;;;105.50;27.70;;;6.10;99.90;;;4.52;100.00;99532.59;4956314;28;20525;-80
2022/09/29 03:57:49;;;;;;;97.53;26.65;;;6.00;99.90;;;4.48;100.00;99531.00;4976922;28;20106;-80
2022/09/29 04:00:15;;;;;;;77.47;26.20;;;6.00;99.90;;;4.45;100.00;99531.16;4942822;29;20088;-79
2022/09/29 04:02:41;;;;;;;63.10;22.45;;;6.00;99.90;;;4.44;100.00;99532.03;4974875;28;20031;-80
2022/09/29 04:05:07;;;;;;;117.43;28.60;;;5.90;99.90;;;4.39;100.00;99527.94;4972694;28;20024;-80
2022/09/29 04:07:32;;;;;;;84.25;25.98;;;5.80;99.90;;;4.37;100.00;99530.59;4959063;28;20020;-79
2022/09/29 04:09:58;;;;;;;76.28;26.27;;;5.90;99.90;;;4.35;100.00;99539.41;4975406;28;20159;-79
2022/09/29 04:12:27;;;;;;;70.28;27.25;;;5.80;99.90;;;4.34;100.00;99537.69;4973622;28;20055;-80
2022/09/29 04:14:53;;;;;;;82.55;28.20;;;;;;;4.34;100.00;99548.09;4954263;28;20039;-80
2022/09/29 04:17:19;;;;;;;88.85;30.08;;;5.80;99.90;;;4.36;100.00;99543.69;4962478;28;20076;-80
2022/09/29 04:19:45;;;;;;;78.68;27.73;;;5.80;99.90;;;4.38;100.00;99547.94;4959346;29;20030;-80
2022/09/29 04:22:18;;;;;;;68.80;27.45;;;5.80;99.90;;;4.37;100.00;99545.41;4959588;28;20031;-80
2022/09/29 04:24:47;;;;;;;60.13;26.42;;;5.80;99.90;;;4.36;100.00;99538.47;5009373;23;20508;-81
2022/09/29 04:27:14;;;;;;;49.80;21.83;;;5.80;99.90;;;4.34;100.00;99537.69;4954974;28;20043;-83
2022/09/29 04:29:40;;;;;;;68.15;26.38;;;5.80;99.90;;;4.32;100.00;99546.44;4974158;28;20061;-80
2022/09/29 04:32:13;;;;;;;98.70;29.58;;;5.80;99.90;;;4.34;100.00;99548.09;4970229;28;20107;-81
2022/09/29 04:34:38;;;;;;;84.85;30.23;;;5.80;99.90;;;4.32;100.00;99545.59;4973773;28;20035;-84
2022/09/29 04:37:10;;;;;;;111.70;31.35;;;5.80;99.90;;;4.32;100.00;99542.97;4984148;28;20034;-81
2022/09/29 04:39:38;;;;;;;109.97;33.13;;;5.80;99.90;;;4.35;100.00;99548.06;4972973;28;20782;-81
2022/09/29 04:42:04;;;;;;;102.57;30.58;;;5.80;99.90;;;4.37;100.00;99550.63;4985022;28;20039;-81
2022/09/29 04:44:30;;;;;;;117.20;33.65;;;5.80;99.90;;;4.39;100.00;99556.63;4987826;28;20126;-84
2022/09/29 04:46:56;;;;;;;118.47;33.13;;;5.80;99.90;;;4.40;100.00;99558.28;4971954;28;20146;-84
2022/09/29 04:49:21;;;;;;;70.32;26.60;;;5.80;99.90;;;4.39;100.00;99567.03;4983946;28;20031;-83
2022/09/29 04:51:47;;;;;;;135.52;33.25;;;5.80;99.90;;;4.36;100.00;99556.72;4955693;28;20120;-83
2022/09/29 04:54:22;;;;;;;128.85;32.20;;;5.80;99.90;;;4.30;100.00;99560.44;4981385;28;20121;-83
2022/09/29 04:56:49;;;;;;;80.28;26.88;;;5.70;99.90;;;4.25;100.00;99563.19;4955317;28;20173;-84
2022/09/29 04:59:16;;;;;;;139.23;30.98;;;5.70;99.90;;;4.19;100.00;99566.06;4979662;28;20030;-82
2022/09/29 05:01:42;;;;;;;149.60;31.42;;;5.60;99.90;;;4.11;100.00;99562.91;4986959;28;20062;-82
2022/09/29 05:04:12;;;;;;;147.15;30.88;;;5.60;99.90;;;4.10;100.00;99559.44;4987901;28;20034;-83
2022/09/29 05:06:38;;;;;;;72.65;25.02;;;5.60;99.90;;;4.11;100.00;99568.13;4954241;28;20058;-83
2022/09/29 05:09:07;;;;;;;146.38;30.83;;;5.60;99.90;;;4.10;100.00;99563.78;4953309;28;20020;-82
2022/09/29 05:11:41;;;;;;;106.97;27.67;;;5.50;99.90;;;4.07;100.00;99572.59;4981526;28;20110;-82
2022/09/29 05:14:08;;;;;;;117.57;29.70;;;5.50;99.90;;;4.05;100.00;99574.41;4986542;28;20023;-84
2022/09/29 05:16:34;;;;;;;110.85;29.25;;;5.50;99.90;;;4.04;100.00;99569.22;4972463;28;20034;-82
2022/09/29 05:19:02;;;;;;;126.13;29.52;;;5.50;99.90;;;4.04;100.00;99577.03;4980744;28;20117;-81
2022/09/29 05:21:31;;;;;;;130.07;31.45;;;5.50;99.90;;;4.10;100.00;99576.81;4984399;28;20054;-83
2022/09/29 05:23:57;;;;;;;151.07;31.83;;;5.60;99.90;;;4.16;100.00;99581.78;4983764;28;20061;-83
2022/09/29 05:26:26;;;;;;;128.73;31.00;;;5.60;99.90;;;4.21;100.00;99582.50;4983742;28;20035;-83
2022/09/29 05:28:52;;;;;;;138.35;30.58;;;5.60;99.90;;;4.25;100.00;99586.66;4944351;28;20039;-83
2022/09/29 05:31:22;;;;;;;136.93;31.05;;;5.70;99.90;;;4.28;100.00;99585.69;4970969;28;20034;-83
2022/09/29 05:33:48;;;;;;;60.17;22.90;;;5.70;99.90;;;4.24;100.00;99582.34;4981894;28;20029;-83
2022/09/29 05:36:14;;;;;;;48.67;22.40;;;5.70;99.90;;;4.35;100.00;99591.53;4983432;28;20038;-83
2022/09/29 05:38:40;;;;;;;50.30;22.42;;;5.70;99.90;;;4.47;100.00;99601.44;4952866;28;20035;-83
2022/09/29 05:41:11;;;;;;;88.60;28.00;;;5.80;99.90;;;4.57;100.00;99599.34;4968573;28;20026;-82
2022/09/29 05:43:40;;;;;;;111.32;40.72;;;5.80;99.90;;;4.56;100.00;99606.31;4945107;28;20137;-82
2022/09/29 05:46:08;;;;;;;125.60;38.53;;;;;;;4.63;100.00;99599.94;4982229;28;20042;-82
2022/09/29 05:48:35;;;;;;;169.73;43.58;;;5.90;99.90;;;4.63;100.00;99607.75;4949895;28;20037;-82
2022/09/29 05:51:09;;;;;;;139.68;38.78;;;5.90;99.90;;;4.70;100.00;99613.56;4984570;28;20476;-80
2022/09/29 05:53:35;;;;;;;179.98;45.88;;;6.00;99.90;;;5.06;100.00;99606.00;4952336;28;20039;-82
2022/09/29 05:56:27;;;;;;;154.60;49.13;;;6.10;99.90;;;5.25;100.00;99615.69;4981637;28;20030;-82
2022/09/29 05:58:54;;;;;;;108.22;39.78;;;6.30;99.90;;;5.72;100.00;99610.13;4947912;28;20054;-81
2022/09/29 06:01:23;;;;;;;106.13;34.58;;;6.40;99.90;;;5.78;100.00;99619.47;4981705;28;20030;-81
2022/09/29 06:03:54;;;;;;;119.30;35.35;;;6.60;99.90;;;5.94;100.00;99623.13;4984551;28;20030;-82
2022/09/29 06:06:27;;;;;;;115.60;36.28;;;6.70;99.90;;;6.16;100.00;99623.00;4984881;28;20545;-80
2022/09/29 06:09:00;;;;;;;98.00;36.50;;;6.80;99.90;;;6.26;100.00;99626.88;4980718;28;20039;-81
2022/09/29 06:11:40;;;;;;;158.55;38.58;;;6.90;99.90;;;6.06;100.00;99629.56;4988566;28;20030;-82
2022/09/29 06:14:05;;;;;;;72.13;32.05;;;6.90;99.90;;;6.14;100.00;99630.06;4965735;28;20492;-81
2022/09/29 06:16:33;;;;;;;102.05;35.83;;;7.10;99.90;;;6.99;100.00;99634.75;4996027;28;20091;-82
2022/09/29 06:19:00;;;;;;;113.70;37.83;;;7.40;99.90;;;8.44;100.00;99640.38;4986089;28;20027;-82
2022/09/29 06:21:28;;;;;;;129.02;40.47;;;8.00;99.90;;;11.29;100.00;99652.00;4968427;28;20027;-82
2022/09/29 06:23:56;;;;;;;114.22;39.45;;;9.10;99.90;;;14.34;82.98;99649.22;4969792;28;20041;-81
2022/09/29 06:26:24;;;;;;;108.45;39.10;;;10.40;99.90;;;16.40;71.45;99645.34;4983930;28;20035;-82
2022/09/29 06:28:52;;;;;;;83.63;35.60;;;11.80;99.90;;;18.04;64.77;99649.97;4970238;28;20045;-81
2022/09/29 06:31:28;;;;;;;82.40;33.83;;;13.20;99.90;;;19.62;60.09;99646.97;4984120;28;20062;-82
2022/09/29 06:34:01;;;;;;;;;;;13.40;99.90;;;21.10;57.56;99661.84;4958193;28;20026;-82
2022/09/29 06:39:28;;;;;;;54.33;26.42;;;17.10;99.90;;;23.10;51.31;99674.47;4969052;28;20087;-82
2022/09/29 06:41:55;;;;;;;41.33;23.85;;;18.10;99.90;;;23.67;49.74;99675.84;4983888;28;20407;-83
2022/09/29 06:44:29;;;;;;;41.72;22.15;;;18.90;99.90;;;24.35;47.96;99677.50;4969861;28;20038;-82
2022/09/29 06:46:56;;;;;;;29.90;21.13;;;;;;;24.98;46.65;99687.81;4985196;28;20023;-80
2022/09/29 06:49:23;;;;;;;33.97;20.40;;;20.40;99.90;;;25.36;45.35;99685.78;4971801;28;20696;-81
2022/09/29 06:51:49;;;;;;;28.38;19.55;;;21.10;99.90;;;25.79;44.61;99695.69;4968591;28;20035;-83
2022/09/29 06:54:19;;;;;;;26.65;19.73;;;21.60;99.90;;;25.93;43.83;99692.06;4967609;28;20031;-81
2022/09/29 06:56:56;;;;;;;26.13;19.05;;;22.00;99.90;;;26.17;42.92;99690.75;4984984;28;20077;-82
2022/09/29 06:59:22;;;;;;;27.77;18.38;;;22.40;99.90;;;26.42;43.00;99701.09;4975095;28;20055;-81
2022/09/29 07:01:48;;;;;;;24.98;18.77;;;22.70;99.90;;;26.48;42.27;99712.94;4950938;28;20110;-81
2022/09/29 07:04:15;;;;;;;25.98;18.63;;;23.00;99.90;;;26.42;42.49;99708.34;4983715;28;20029;-81
2022/09/29 07:06:41;;;;;;;27.45;18.85;;;23.10;99.90;;;26.28;42.32;99716.34;4943256;28;20114;-81
2022/09/29 07:09:06;;;;;;;24.77;17.85;;;23.30;99.90;;;26.27;42.57;99717.41;4980982;28;20027;-82
2022/09/29 07:11:32;;;;;;;26.40;18.67;;;23.40;99.30;;;25.90;42.37;99724.00;4965292;28;20039;-81
2022/09/29 07:14:03;;;;;;;27.52;19.42;;;23.40;99.40;;;25.81;42.72;99722.41;4969006;28;20499;-82
2022/09/29 07:16:29;;;;;;;26.45;18.52;;;23.50;99.40;;;25.79;42.72;99726.16;4982779;28;20031;-82
2022/09/29 07:18:54;;;;;;;23.40;18.17;;;23.60;99.40;;;25.96;42.56;99732.13;4966624;28;20065;-82
2022/09/29 07:21:21;;;;;;;26.55;18.40;;;23.90;97.80;;;25.89;42.26;99730.41;4983034;28;20030;-81
2022/09/29 07:23:47;;;;;;;25.13;18.10;;;24.10;97.40;;;25.83;42.61;99736.53;4985219;28;20031;-82
2022/09/29 07:26:21;;;;;;;31.10;19.17;;;24.20;98.10;;;25.75;42.79;99740.22;4983007;28;20034;-81
2022/09/29 07:28:47;;;;;;;25.15;18.52;;;24.30;98.20;;;25.72;42.67;99737.91;4982042;28;20038;-82
2022/09/29 07:31:17;;;;;;;26.65;18.20;;;24.40;97.40;;;25.53;43.05;99740.25;4968766;28;20496;-81
2022/09/29 07:33:46;;;;;;;23.95;17.90;;;24.50;96.90;;;25.56;43.11;99745.22;4988001;28;20063;-81
2022/09/29 07:36:14;;;;;;;26.10;18.20;;;24.80;96.90;;;25.53;43.04;99745.63;4973624;28;20480;-81
2022/09/29 07:38:41;;;;;;;29.33;19.02;;;24.90;96.90;;;25.55;43.14;99750.81;4955271;28;20050;-81
2022/09/29 07:41:12;;;;;;;24.27;18.48;;;25.10;96.60;;;25.65;43.06;99755.91;4969776;28;20090;-82
2022/09/29 07:43:39;;;;;;;25.48;17.75;;;25.30;96.20;;;25.70;43.29;99757.00;4985549;28;20316;-82
2022/09/29 07:46:05;;;;;;;28.13;17.67;;;25.60;95.30;;;25.82;42.97;99761.84;4988143;28;20030;-81
2022/09/29 07:48:32;;;;;;;23.55;17.65;;;25.90;96.00;;;26.21;42.64;99763.22;4958543;28;20563;-82
2022/09/29 07:51:20;;;;;;;22.65;16.80;;;26.20;95.10;;;26.07;42.52;99773.06;4969061;28;20038;-83
2022/09/29 07:53:46;;;;;;;24.88;17.50;;;26.40;94.80;;;26.22;42.65;99773.84;4937418;28;20031;-83
2022/09/29 07:56:19;;;;;;;23.75;18.05;;;26.60;95.10;;;26.35;42.46;99779.31;4984935;28;20527;-83
2022/09/29 07:58:49;;;;;;;25.20;18.02;;;26.80;94.40;;;26.47;42.69;99776.88;4972403;28;20052;-83
2022/09/29 08:01:18;;;;;;;22.83;17.42;;;27.20;95.10;;;26.80;42.71;99787.91;4946610;28;20035;-81
2022/09/29 08:03:57;;;;;;;21.13;16.30;;;27.40;94.60;;;26.88;42.08;99791.47;4965415;28;20066;-82
2022/09/29 08:06:27;;;;;;;23.25;16.15;;;27.70;93.40;;;26.84;42.19;99792.91;4953982;28;20474;-82
2022/09/29 08:08:53;;;;;;;23.02;16.10;;;27.70;93.30;;;26.68;42.31;99792.22;4971368;28;20730;-83
2022/09/29 08:11:21;;;;;;;26.98;16.15;;;27.70;93.30;;;26.80;42.32;99801.44;4984196;28;20566;-83
2022/09/29 08:13:51;;;;;;;19.77;15.40;;;27.90;93.60;;;26.96;42.58;99802.13;4986300;28;20035;-83
2022/09/29 08:16:17;;;;;;;21.67;15.32;;;28.10;93.40;;;27.11;41.57;99810.91;4983990;28;20042;-81
2022/09/29 08:18:43;;;;;;;21.63;15.57;;;28.30;92.10;;;27.03;41.93;99810.25;4943272;28;20476;-82
2022/09/29 08:21:18;;;;;;;20.13;15.95;;;28.30;92.00;;;27.05;41.96;99806.31;4980817;28;20038;-81
2022/09/29 08:23:47;;;;;;;25.80;15.67;;;28.40;92.30;;;27.03;41.81;99808.38;4954258;28;20031;-82
2022/09/29 08:26:20;;;;;;;21.08;15.20;;;28.30;92.40;;;26.73;42.44;99805.09;4965191;28;20105;-81
2022/09/29 08:28:47;;;;;;;20.23;14.80;;;27.90;92.20;;;26.18;42.87;99807.63;4982473;28;20058;-82
2022/09/29 08:31:22;;;;;;;22.30;16.23;;;27.40;91.90;;;25.44;42.98;99797.97;4953324;28;20089;-82
2022/09/29 08:33:50;;;;;;;20.13;14.77;;;26.90;92.30;;;25.05;44.17;99799.16;4985291;28;20042;-82
2022/09/29 08:36:19;;;;;;;20.90;14.40;;;26.40;93.10;;;24.82;44.76;99799.28;4966870;28;20059;-81
2022/09/29 08:38:51;;;;;;;22.00;14.25;;;26.00;92.90;;;24.24;45.18;99806.25;4966632;28;20050;-83
2022/09/29 08:41:51;;;;;;;19.27;14.13;;;25.60;93.50;;;23.88;45.95;99804.22;4980429;28;20045;-82
2022/09/29 08:44:44;;;;;;;23.05;14.75;;;25.00;94.00;;;23.26;46.89;99805.94;4970089;28;20075;-82
2022/09/29 08:47:36;;;;;;;20.35;15.35;;;24.40;94.70;;;22.75;48.40;99799.25;4968667;28;20403;-80
2022/09/29 08:50:27;;;;;;;19.98;14.20;;;24.00;95.10;;;22.49;48.11;99794.97;4961975;28;20057;-82
2022/09/29 08:53:08;;;;;;;22.13;14.80;;;23.50;96.00;;;22.20;49.44;99798.16;4979552;28;20074;-81
2022/09/29 08:55:47;;;;;;;21.83;15.02;;;23.10;96.60;;;21.69;50.20;99793.00;4981365;28;20081;-82
2022/09/29 08:58:23;;;;;;;22.33;15.07;;;22.60;97.10;;;21.24;51.19;99788.84;4952880;28;20522;-82
2022/09/29 09:02:04;;;;;;;20.02;13.80;;;22.10;97.20;;;20.85;51.79;99792.06;4977734;28;20039;-83
2022/09/29 09:05:30;;;;;;;19.60;14.00;;;21.40;97.90;;;19.95;53.44;99797.66;4940616;28;20106;-82
2022/09/29 09:08:41;;;;;;;23.27;15.15;;;20.70;99.90;;;19.44;55.66;99805.34;4971012;28;20037;-80
2022/09/29 09:11:26;;;;;;;21.65;15.63;;;20.30;99.90;;;19.36;56.73;99807.91;4972956;28;20038;-82
2022/09/29 09:14:18;;;;;;;21.05;14.35;;;20.00;99.90;;;19.34;56.84;99804.56;4969774;28;20043;-81
2022/09/29 09:17:37;;;;;;;20.00;14.27;;;19.80;99.90;;;19.14;58.57;99801.19;4957662;28;20043;-81
2022/09/29 09:20:43;;;;;;;22.80;15.30;;;19.50;99.90;;;18.54;59.18;99796.22;4980888;28;20046;-82
2022/09/29 09:23:24;;;;;;;19.98;13.63;;;19.00;99.90;;;18.02;60.48;99798.44;4962032;28;20126;-83
2022/09/29 09:26:22;;;;;;;23.20;15.27;;;18.70;99.90;;;17.64;61.92;99792.09;4973593;28;20035;-82
2022/09/29 09:29:17;;;;;;;20.75;14.23;;;18.50;99.90;;;17.36;62.84;99794.59;4987146;28;20027;-83
2022/09/29 09:31:56;;;;;;;20.42;13.63;;;18.40;99.90;;;17.45;62.08;99794.75;4982831;28;20035;-81
2022/09/29 09:34:33;;;;;;;20.60;13.27;;;18.30;99.90;;;17.47;62.81;99795.47;4960554;28;20038;-83
2022/09/29 09:37:19;;;;;;;16.00;12.40;;;18.30;99.90;;;17.31;62.22;99783.53;4985480;28;20023;-83
2022/09/29 09:40:14;;;;;;;17.90;12.97;;;18.10;99.90;;;17.06;62.97;99789.34;4969470;28;20035;-83
2022/09/29 09:42:56;;;;;;;19.08;11.68;;;17.90;99.90;;;16.74;62.98;99793.03;4984032;28;20488;-81
2022/09/29 09:46:01;;;;;;;19.00;12.43;;;17.70;99.90;;;16.53;64.05;99791.25;4987672;28;20065;-82
2022/09/29 09:49:12;;;;;;;19.73;11.38;;;17.50;99.90;;;16.54;64.75;99795.59;4938583;28;20042;-82
2022/09/29 09:51:59;;;;;;;16.63;11.05;;;17.50;99.90;;;16.63;65.34;99796.63;4951954;28;20067;-82
2022/09/29 09:54:44;;;;;;;13.90;10.10;;;17.60;99.90;;;16.79;64.72;99796.94;4984995;28;20041;-82
2022/09/29 09:58:00;;;;;;;14.30;10.75;;;17.70;99.90;;;17.05;64.13;99801.81;4983502;28;20407;-82
2022/09/29 10:00:47;;;;;;;16.70;10.52;;;17.90;99.90;;;17.14;63.73;99795.69;4967729;28;20050;-82
2022/09/29 10:03:23;;;;;;;;;;;17.90;99.90;;;17.09;64.29;99799.75;4952650;28;20142;-81
2022/09/29 10:05:50;;;;;;;13.80;9.80;;;17.90;99.90;;;17.21;62.44;99794.19;4982658;28;19922;-83
2022/09/29 10:08:41;;;;;;;17.13;11.50;;;17.90;99.90;;;17.11;61.87;99795.97;4953877;28;20110;-83
2022/09/29 10:11:29;;;;;;;17.27;10.75;;;17.90;99.90;;;17.13;62.27;99801.16;4979835;28;20059;-83
2022/09/29 10:14:17;;;;;;;13.75;9.75;;;17.90;99.90;;;17.03;62.20;99801.13;4951958;28;20050;-82
2022/09/29 10:17:16;;;;;;;14.00;10.52;;;17.90;99.90;;;17.18;63.17;99801.56;4947691;28;20031;-81
2022/09/29 10:19:57;;;;;;;16.98;11.13;;;18.00;99.90;;;17.49;62.51;99806.81;4953835;28;20038;-81
2022/09/29 10:22:25;;;;;;;17.50;10.90;;;18.30;99.90;;;17.77;62.65;99807.81;4967706;28;20055;-82
2022/09/29 10:25:18;;;;;;;17.02;10.10;;;18.40;99.90;;;17.67;61.26;99805.16;4981583;28;20967;-80
2022/09/29 10:27:56;;;;;;;15.98;10.45;;;18.40;99.90;;;17.70;61.83;99802.19;4978585;28;20038;-82
2022/09/29 10:30:50;;;;;;;14.43;10.38;;;18.40;99.90;;;17.69;61.13;99799.66;4983175;28;20062;-81
2022/09/29 10:33:24;;;;;;;13.98;10.05;;;18.50;99.90;;;17.80;61.40;99808.38;4947240;28;20062;-81
2022/09/29 10:36:09;;;;;;;13.85;9.65;;;18.50;99.90;;;17.93;61.15;99809.94;4952624;28;20105;-81
2022/09/29 10:38:45;;;;;;;12.03;8.33;;;18.60;99.90;;;17.98;60.60;99797.03;4965579;28;20099;-82
2022/09/29 10:41:19;;;;;;;14.68;8.25;;;18.70;99.90;;;18.03;59.62;99800.09;4960464;28;20508;-81
2022/09/29 10:43:51;;;;;;;12.75;8.40;;;18.70;99.90;;;17.94;59.60;99811.63;4969597;28;20046;-82
2022/09/29 10:46:50;;;;;;;16.75;9.32;;;18.60;99.90;;;17.82;60.12;99811.78;4966786;28;20043;-82